Terminal Aerodrome Forecast
Issued by NWS Wichita, KS

Home | Current Version | Previous Version | Graphics & Text | Print | Product List | Glossary On
Versions: 1 2 3 4 5 6 7 8 9 10 11 12 13 14 15 16 17 18 19 20 21 22 23 24 25 26 27 28 29 30 31 32
000
FTUS43 KICT 281747
TAFICT
TAF
KICT 281747Z 2818/0118 12009KT 1/2SM SN OVC015
      TEMPO 2818/2820 1/4SM +SN VV008
     FM282000 14008KT 5SM -SN BR OVC025
     FM282300 16006KT P6SM OVC025
     FM011100 VRB04KT 6SM -SN OVC020
     FM011500 36005KT P6SM OVC035=

USA.gov is the U.S. government's official web portal to all federal, state and local government web resources and services.